Time;durP1;ratioP1;P1;durP2;ratioP2;P2;SDS_P1;SDS_P2;PMS_P1;PMS_P2;Temp;Humidity;BMP_temperature;BMP_pressure;BME280_temperature;BME280_humidity;BME280_pressure;Samples;Min_cycle;Max_cycle;Signal;HPM_P1;HPM_P2
2021/12/08 00:01:26;;;;;;;10.53;6.40;;;;;;;0.46;85.47;100462.91;1689770;83;25884;-59
2021/12/08 00:03:53;;;;;;;9.48;5.87;;;;;;;0.46;85.47;100466.88;1677708;84;25815;-59
2021/12/08 00:06:22;;;;;;;9.68;6.37;;;;;;;0.47;85.34;100465.95;1701751;82;25942;-59
2021/12/08 00:09:26;;;;;;;9.65;6.08;;;;;;;0.47;85.22;100476.53;1698819;82;25926;-59
2021/12/08 00:14:31;;;;;;;13.35;6.87;;;;;;;0.49;85.30;100475.13;1668614;84;25986;-59
2021/12/08 00:16:58;;;;;;;12.05;6.67;;;;;;;0.50;85.15;100475.52;1670840;84;26498;-59
2021/12/08 00:19:44;;;;;;;11.03;6.78;;;;;;;0.52;85.13;100475.81;1683729;83;25832;-59
2021/12/08 00:22:11;;;;;;;12.80;6.72;;;;;;;0.50;84.99;100477.67;1683936;83;25706;-59
2021/12/08 00:24:39;;;;;;;10.50;6.45;;;;;;;0.52;84.98;100478.94;1682871;84;27376;-59
2021/12/08 00:27:06;;;;;;;8.85;5.55;;;;;;;0.46;85.07;100481.44;1659019;84;25796;-59
2021/12/08 00:29:34;;;;;;;11.60;6.28;;;;;;;0.42;84.89;100485.16;1701749;82;25868;-59
2021/12/08 00:32:01;;;;;;;11.00;6.92;;;;;;;0.42;85.03;100478.09;1710510;82;27925;-59
2021/12/08 00:34:28;;;;;;;11.95;6.67;;;;;;;0.36;85.01;100472.25;1715644;83;25783;-59
2021/12/08 00:36:58;;;;;;;9.65;5.78;;;;;;;0.33;85.06;100473.27;1714412;83;27555;-59
2021/12/08 00:39:24;;;;;;;11.55;6.78;;;;;;;0.34;85.30;100479.40;1714527;83;25799;-59
2021/12/08 00:41:50;;;;;;;9.28;5.90;;;;;;;0.31;85.28;100483.06;1707176;83;25807;-60
2021/12/08 00:44:17;;;;;;;12.40;6.60;;;;;;;0.29;85.24;100471.70;1684435;83;25790;-59
2021/12/08 00:46:44;;;;;;;11.05;6.53;;;;;;;0.27;85.36;100469.62;1666753;84;25889;-59
2021/12/08 00:49:15;;;;;;;10.08;6.37;;;;;;;0.24;85.60;100462.66;1669328;84;28207;-60
2021/12/08 00:51:42;;;;;;;13.18;7.37;;;;;;;0.24;85.60;100470.60;1674375;84;25903;-59
2021/12/08 00:54:10;;;;;;;12.03;7.65;;;;;;;0.21;85.71;100464.16;1684355;84;26509;-59
2021/12/08 00:56:36;;;;;;;13.48;7.15;;;;;;;0.23;85.62;100466.72;1658765;85;26447;-60
2021/12/08 00:59:04;;;;;;;12.43;7.00;;;;;;;0.23;85.72;100458.78;1662471;85;25833;-60
2021/12/08 01:01:31;;;;;;;12.00;6.10;;;;;;;0.24;85.69;100452.08;1661951;84;27511;-59
2021/12/08 01:03:58;;;;;;;11.25;6.05;;;;;;;0.21;85.70;100448.73;1663878;85;25844;-60
2021/12/08 01:06:25;;;;;;;13.08;7.42;;;;;;;0.16;85.74;100447.65;1664937;84;25811;-60
2021/12/08 01:08:53;;;;;;;10.78;6.45;;;;;;;0.14;85.99;100453.48;1685644;84;26526;-60
2021/12/08 01:11:21;;;;;;;11.15;6.75;;;;;;;0.12;85.79;100450.92;1693418;84;25527;-60
2021/12/08 01:13:50;;;;;;;14.40;7.17;;;;;;;0.07;85.88;100466.17;1673021;84;28208;-60
2021/12/08 01:16:19;;;;;;;13.85;7.78;;;;;;;0.09;85.93;100466.93;1677273;84;26456;-60
2021/12/08 01:18:47;;;;;;;14.55;7.70;;;;;;;0.07;86.05;100472.78;1691505;83;25688;-60
2021/12/08 01:21:14;;;;;;;9.80;6.70;;;;;;;0.05;85.79;100473.33;1678295;85;25795;-60
2021/12/08 01:23:41;;;;;;;11.70;7.12;;;;;;;0.05;85.91;100475.09;1670622;83;25855;-60
2021/12/08 01:26:10;;;;;;;11.73;7.47;;;;;;;0.04;86.06;100458.86;1684497;84;27478;-60
2021/12/08 01:28:37;;;;;;;10.82;6.85;;;;;;;0.04;86.05;100461.51;1659244;84;25804;-60
2021/12/08 01:31:05;;;;;;;10.95;7.30;;;;;;;0.04;86.07;100461.03;1659862;86;25621;-60
2021/12/08 01:33:35;;;;;;;11.12;7.45;;;;;;;0.02;86.13;100472.62;1688999;83;25838;-60
2021/12/08 01:36:05;;;;;;;11.25;6.83;;;;;;;-0.03;86.12;100475.02;1666783;84;25929;-60
2021/12/08 01:38:34;;;;;;;12.82;7.47;;;;;;;-0.05;86.27;100468.09;1696879;84;27488;-60
2021/12/08 01:41:03;;;;;;;12.63;8.23;;;;;;;-0.07;86.32;100473.47;1696532;84;25818;-60
2021/12/08 01:43:41;;;;;;;12.20;7.42;;;;;;;-0.09;86.36;100469.20;1686077;84;25901;-60
2021/12/08 01:46:03;;;;;;;10.60;6.75;;;;;;;-0.12;86.51;100468.01;1695892;84;25821;-60
2021/12/08 01:48:35;;;;;;;16.02;7.72;;;;;;;-0.18;86.47;100472.65;1686888;83;25861;-60
2021/12/08 01:51:12;;;;;;;13.85;6.95;;;;;;;-0.18;86.53;100466.04;1689972;83;27502;-60
2021/12/08 01:53:44;;;;;;;14.93;7.08;;;;;;;-0.18;86.57;100467.36;1692704;83;25747;-60
2021/12/08 01:56:12;;;;;;;12.73;7.25;;;;;;;-0.21;86.68;100457.41;1686482;83;25912;-60
2021/12/08 01:58:40;;;;;;;12.18;7.35;;;;;;;-0.22;86.82;100457.88;1685101;83;25794;-59
2021/12/08 02:01:14;;;;;;;14.15;7.87;;;;;;;-0.26;86.71;100444.89;1691394;83;25838;-60
2021/12/08 02:03:43;;;;;;;12.53;6.75;;;;;;;-0.27;86.92;100437.89;1683434;83;28372;-60
2021/12/08 02:06:12;;;;;;;16.15;8.73;;;;;;;-0.29;86.92;100435.33;1670407;84;25784;-60
2021/12/08 02:08:42;;;;;;;12.03;7.22;;;;;;;-0.27;86.74;100439.20;1705086;82;25758;-60
2021/12/08 02:11:10;;;;;;;11.15;6.17;;;;;;;-0.28;86.55;100442.33;1700836;83;25804;-60
2021/12/08 02:13:40;;;;;;;14.43;8.58;;;;;;;-0.28;86.52;100447.62;1710651;82;26352;-60
2021/12/08 02:16:12;;;;;;;12.65;7.20;;;;;;;-0.30;86.50;100452.56;1701105;82;28195;-60
2021/12/08 02:18:40;;;;;;;12.13;8.13;;;;;;;-0.36;86.16;100450.63;1700095;82;25853;-59
2021/12/08 02:21:30;;;;;;;11.83;6.97;;;;;;;-0.38;86.47;100456.44;1626737;85;26306;-59
2021/12/08 02:24:02;;;;;;;12.40;7.20;;;;;;;-0.39;86.68;100447.27;1640464;86;25807;-59
2021/12/08 02:26:31;;;;;;;13.53;7.33;;;;;;;-0.42;86.50;100439.48;1633937;85;25788;-59
2021/12/08 02:29:02;;;;;;;12.58;7.17;;;;;;;-0.43;86.65;100443.92;1642671;85;28162;-59
2021/12/08 02:31:46;;;;;;;13.20;8.10;;;;;;;-0.44;86.59;100430.31;1632421;84;25809;-60
2021/12/08 02:47:54;;;;;;;12.80;7.12;;;;;;;-0.42;86.63;100427.14;1665877;83;25654;-59
2021/12/08 02:50:26;;;;;;;11.78;7.10;;;;;;;-0.38;86.62;100435.30;1684118;84;26977;-59
2021/12/08 02:52:56;;;;;;;14.30;6.80;;;;;;;-0.39;86.19;100441.98;1706979;84;25799;-60
2021/12/08 02:55:23;;;;;;;11.08;6.08;;;;;;;-0.41;86.47;100434.14;1700840;83;28436;-59
2021/12/08 02:57:51;;;;;;;12.80;7.45;;;;;;;-0.49;86.44;100423.05;1682130;83;25808;-59
2021/12/08 03:00:25;;;;;;;10.85;6.87;;;;;;;-0.52;86.94;100427.19;1664628;84;25828;-59
2021/12/08 03:02:55;;;;;;;;;;;;;;;-0.53;87.16;100438.69;1689302;84;25778;-59
2021/12/08 03:05:23;;;;;;;13.35;7.25;;;;;;;-0.54;87.00;100443.57;1694004;83;25833;-59
2021/12/08 03:07:50;;;;;;;12.73;6.85;;;;;;;-0.53;86.99;100437.36;1702350;82;27470;-59
2021/12/08 03:10:23;;;;;;;13.83;7.12;;;;;;;-0.53;86.88;100435.56;1690154;83;25857;-59
2021/12/08 03:12:49;;;;;;;10.58;6.97;;;;;;;-0.52;86.92;100443.05;1705251;82;25837;-59
2021/12/08 03:15:17;;;;;;;13.00;7.20;;;;;;;-0.52;86.91;100437.76;1706485;82;25851;-59
2021/12/08 03:17:45;;;;;;;14.43;6.47;;;;;;;-0.48;87.00;100445.91;1699321;82;25823;-59
2021/12/08 03:20:20;;;;;;;10.53;6.80;;;;;;;-0.46;86.99;100441.90;1698263;82;27544;-59
2021/12/08 03:22:48;;;;;;;;;;;;;;;-0.44;86.85;100447.94;1703918;82;25857;-59
2021/12/08 03:25:20;;;;;;;10.43;6.58;;;;;;;-0.41;86.62;100441.20;1698394;82;25914;-59
2021/12/08 03:28:03;;;;;;;14.05;6.90;;;;;;;-0.40;86.59;100437.15;1697012;82;25808;-59
2021/12/08 03:30:25;;;;;;;14.58;7.45;;;;;;;-0.38;86.35;100437.94;1698592;83;25899;-59
2021/12/08 03:32:47;;;;;;;12.88;7.50;;;;;;;-0.35;86.50;100448.38;1684390;83;28350;-60
2021/12/08 03:35:17;;;;;;;10.08;6.22;;;;;;;-0.36;86.11;100435.24;1665477;84;25868;-59
2021/12/08 03:37:47;;;;;;;10.45;5.70;;;;;;;-0.36;85.92;100434.77;1670308;84;25462;-59
2021/12/08 03:40:19;;;;;;;10.93;6.58;;;;;;;-0.35;85.73;100440.89;1661666;84;25752;-59
2021/12/08 03:42:49;;;;;;;13.13;6.25;;;;;;;-0.36;85.48;100437.88;1668104;84;25907;-59
2021/12/08 03:45:29;;;;;;;12.88;7.50;;;;;;;-0.41;85.42;100435.46;1668996;84;27450;-60
2021/12/08 03:48:02;;;;;;;13.25;7.58;;;;;;;-0.43;85.39;100434.67;1674318;84;25443;-59
2021/12/08 03:50:33;;;;;;;15.08;6.97;;;;;;;-0.42;85.39;100425.82;1669881;84;25760;-60
2021/12/08 03:53:00;;;;;;;11.20;6.67;;;;;;;-0.43;85.50;100428.06;1672758;85;26422;-60
2021/12/08 03:55:27;;;;;;;10.08;6.12;;;;;;;-0.47;85.33;100427.81;1674975;83;25816;-60
2021/12/08 03:57:54;;;;;;;12.23;6.40;;;;;;;-0.45;85.38;100433.04;1685624;84;27530;-59
2021/12/08 04:00:29;;;;;;;11.48;7.22;;;;;;;-0.43;85.46;100436.44;1682541;84;44029;-59
2021/12/08 04:03:03;;;;;;;13.98;7.25;;;;;;;-0.44;85.69;100447.94;1665948;84;25784;-59
2021/12/08 04:05:43;;;;;;;13.85;6.25;;;;;;;-0.49;85.42;100454.77;1669205;84;25852;-59
2021/12/08 04:08:04;;;;;;;12.40;6.50;;;;;;;-0.51;85.56;100449.56;1671364;84;25838;-59
2021/12/08 04:10:31;;;;;;;12.28;6.95;;;;;;;-0.49;85.63;100453.44;1669874;84;27510;-59
2021/12/08 04:12:58;;;;;;;19.70;11.25;;;;;;;-0.47;85.65;100455.55;1669610;84;25932;-59
2021/12/08 04:15:26;;;;;;;12.10;7.00;;;;;;;-0.49;85.36;100454.77;1703125;82;25483;-59
2021/12/08 04:17:56;;;;;;;12.25;6.90;;;;;;;-0.53;85.36;100461.14;1700213;83;25790;-59
2021/12/08 04:20:52;;;;;;;13.28;7.53;;;;;;;-0.57;85.45;100456.92;1689560;83;25840;-59
2021/12/08 04:23:23;;;;;;;12.60;7.37;;;;;;;-0.59;85.68;100471.53;1710783;83;28224;-59
2021/12/08 04:25:53;;;;;;;14.85;7.80;;;;;;;-0.57;85.81;100478.05;1696410;83;25970;-60
2021/12/08 04:28:26;;;;;;;14.28;7.92;;;;;;;-0.55;85.56;100468.28;1686113;83;25524;-59
2021/12/08 04:30:58;;;;;;;12.18;7.55;;;;;;;-0.52;85.74;100477.39;1687260;84;25821;-59
2021/12/08 04:33:27;;;;;;;14.28;7.80;;;;;;;-0.49;85.63;100480.75;1681450;83;25719;-59
2021/12/08 04:35:56;;;;;;;11.43;5.87;;;;;;;-0.49;85.31;100482.06;1683177;84;28125;-59
2021/12/08 04:38:32;;;;;;;12.45;7.40;;;;;;;-0.54;85.04;100477.92;1687721;83;25761;-59
2021/12/08 04:41:07;;;;;;;;;;;;;;;-0.56;85.40;100478.45;1683771;84;25742;-59
2021/12/08 04:43:46;;;;;;;12.65;7.37;;;;;;;-0.54;85.57;100493.77;1678849;81;25904;-59
2021/12/08 04:46:22;;;;;;;;;;;;;;;-0.60;85.38;100486.98;1687152;83;25741;-60
2021/12/08 04:49:18;;;;;;;18.07;10.00;;;;;;;-0.62;85.52;100497.24;1686748;83;27363;-58
2021/12/08 04:52:20;;;;;;;12.18;7.83;;;;;;;-0.57;85.61;100492.59;1686574;83;25957;-61
2021/12/08 05:05:35;;;;;;;12.03;7.47;;;;;;;-0.69;85.14;100502.82;1670248;83;25882;-59
2021/12/08 05:07:53;;;;;;;8.85;5.55;;;;;;;-0.67;85.04;100519.43;1676584;83;26414;-60
2021/12/08 05:10:21;;;;;;;10.82;6.70;;;;;;;-0.69;84.97;100520.44;1671098;83;25823;-59
2021/12/08 05:12:52;;;;;;;10.45;6.45;;;;;;;-0.64;85.14;100525.91;1676432;83;25785;-59
2021/12/08 05:15:29;;;;;;;12.55;7.15;;;;;;;-0.65;85.37;100525.52;1665235;83;27536;-59
2021/12/08 05:18:10;;;;;;;12.33;7.08;;;;;;;-0.57;85.28;100515.92;1647131;84;26279;-60
2021/12/08 05:20:50;;;;;;;14.10;6.08;;;;;;;-0.51;85.05;100520.07;1640839;86;25793;-58
2021/12/08 05:23:38;;;;;;;14.83;8.40;;;;;;;-0.54;84.55;100521.05;1641810;86;25813;-58
2021/12/08 05:26:16;;;;;;;11.03;6.58;;;;;;;-0.57;84.50;100527.81;1645332;84;25528;-58
2021/12/08 05:28:47;;;;;;;11.73;6.37;;;;;;;-0.60;84.52;100531.06;1616582;86;27651;-58
2021/12/08 05:31:25;;;;;;;13.00;7.72;;;;;;;-0.65;84.71;100540.04;1637746;84;25837;-58
2021/12/08 05:33:54;;;;;;;10.00;6.60;;;;;;;-0.69;84.57;100532.33;1631082;86;25712;-59
2021/12/08 05:36:24;;;;;;;11.65;6.12;;;;;;;-0.71;84.83;100535.05;1664174;85;25793;-59
2021/12/08 05:38:54;;;;;;;13.98;7.42;;;;;;;-0.68;84.92;100522.16;1625134;86;25889;-60
2021/12/08 05:41:31;;;;;;;13.88;7.15;;;;;;;-0.75;84.71;100518.09;1635369;85;27501;-59
2021/12/08 05:43:59;;;;;;;12.90;7.53;;;;;;;-0.86;84.73;100519.91;1631416;86;25861;-59
2021/12/08 05:46:30;;;;;;;12.58;6.30;;;;;;;-0.92;84.71;100522.80;1628562;87;25859;-59
2021/12/08 05:48:58;;;;;;;14.20;7.05;;;;;;;-1.01;84.87;100534.17;1624521;84;26526;-60
2021/12/08 05:51:33;;;;;;;13.45;7.72;;;;;;;-1.00;84.97;100537.20;1635082;85;25953;-58
2021/12/08 05:54:05;;;;;;;12.53;7.20;;;;;;;-1.02;85.01;100553.57;1631112;85;28208;-58
2021/12/08 05:56:34;;;;;;;12.50;6.45;;;;;;;-1.06;84.75;100541.89;1636084;85;25872;-59
2021/12/08 05:59:04;;;;;;;13.10;6.47;;;;;;;-1.11;85.04;100546.05;1635745;87;25847;-59
2021/12/08 06:01:45;;;;;;;14.68;8.00;;;;;;;-1.12;85.14;100554.92;1635988;86;25897;-59
2021/12/08 06:04:13;;;;;;;12.33;7.58;;;;;;;-1.14;85.48;100557.61;1670628;84;25764;-59
2021/12/08 06:06:42;;;;;;;12.50;7.75;;;;;;;-1.15;85.13;100544.48;1666847;84;27494;-60
2021/12/08 06:09:12;;;;;;;9.65;6.05;;;;;;;-1.20;85.61;100538.53;1705706;83;25517;-60
2021/12/08 06:11:40;;;;;;;10.50;6.60;;;;;;;-1.26;85.58;100548.44;1672550;84;25548;-59
2021/12/08 06:14:07;;;;;;;15.60;7.72;;;;;;;-1.19;85.55;100545.09;1685169;84;25786;-60
2021/12/08 06:16:40;;;;;;;13.03;6.92;;;;;;;-1.17;85.58;100552.92;1710713;83;25872;-60
2021/12/08 06:19:13;;;;;;;14.95;7.30;;;;;;;-1.19;85.48;100545.53;1665051;84;27501;-60
2021/12/08 06:21:41;;;;;;;15.83;7.80;;;;;;;-1.17;85.42;100547.65;1703058;83;25813;-60
2021/12/08 06:24:11;;;;;;;15.95;8.13;;;;;;;-1.13;85.49;100560.65;1671799;84;25776;-61
2021/12/08 06:26:39;;;;;;;12.50;7.45;;;;;;;-1.13;85.64;100554.53;1653850;84;25872;-60
2021/12/08 06:29:11;;;;;;;12.07;7.00;;;;;;;-1.14;85.42;100558.09;1680036;83;25954;-59
2021/12/08 06:31:40;;;;;;;12.93;7.40;;;;;;;-1.20;84.98;100558.33;1685530;84;27538;-59
2021/12/08 06:34:16;;;;;;;11.55;7.08;;;;;;;-1.19;85.05;100553.45;1670338;84;25860;-62
2021/12/08 06:37:41;;;;;;;14.00;8.08;;;;;;;-1.19;84.68;100550.81;1691652;84;25912;-62
2021/12/08 06:40:31;;;;;;;12.28;7.67;;;;;;;-1.14;84.96;100553.65;1682892;84;25889;-62
2021/12/08 06:43:06;;;;;;;16.90;7.53;;;;;;;-1.14;84.36;100566.84;1665023;84;25908;-60
2021/12/08 06:45:38;;;;;;;16.80;7.70;;;;;;;-1.16;84.54;100560.77;1667085;84;27532;-60
2021/12/08 06:48:10;;;;;;;14.13;8.28;;;;;;;-1.21;84.32;100562.77;1686078;84;25819;-59
2021/12/08 06:50:48;;;;;;;12.98;7.85;;;;;;;-1.26;84.38;100564.28;1692679;83;25815;-59
2021/12/08 06:53:16;;;;;;;11.18;7.45;;;;;;;-1.27;84.63;100563.88;1659444;85;25969;-59
2021/12/08 06:56:06;;;;;;;10.08;6.60;;;;;;;-1.30;84.46;100561.84;1692653;83;25959;-59
2021/12/08 06:58:38;;;;;;;11.45;7.35;;;;;;;-1.30;84.56;100567.11;1690888;83;27528;-60
2021/12/08 07:01:22;;;;;;;12.78;6.87;;;;;;;-1.26;84.48;100568.72;1694361;83;25771;-60
2021/12/08 07:04:52;;;;;;;11.78;7.37;;;;;;;-1.26;84.44;100564.75;1694977;82;25752;-60
2021/12/08 07:09:14;;;;;;;11.48;7.55;;;;;;;-1.17;84.24;100573.60;1697825;82;25473;-60
2021/12/08 07:11:42;;;;;;;16.42;8.28;;;;;;;-1.16;84.11;100569.16;1706001;82;28521;-60
2021/12/08 07:14:10;;;;;;;12.15;7.10;;;;;;;-1.12;84.03;100564.16;1699814;82;26261;-60
2021/12/08 07:16:42;;;;;;;14.87;7.78;;;;;;;-1.13;83.78;100568.56;1678559;83;25800;-60
2021/12/08 07:19:22;;;;;;;14.40;8.18;;;;;;;-1.16;83.69;100560.77;1702109;82;25846;-60
2021/12/08 07:21:46;;;;;;;15.83;7.58;;;;;;;-1.15;83.83;100560.33;1700176;82;25853;-59
2021/12/08 07:24:21;;;;;;;15.68;9.28;;;;;;;-1.16;83.49;100571.80;1702312;82;27506;-60
2021/12/08 07:26:53;;;;;;;15.25;8.08;;;;;;;-1.19;83.34;100562.69;1701775;83;25836;-60
2021/12/08 07:29:24;;;;;;;16.82;8.73;;;;;;;-1.15;83.43;100559.00;1709425;82;26252;-59
2021/12/08 07:31:57;;;;;;;18.92;9.60;;;;;;;-1.13;83.34;100565.92;1707228;82;25937;-59
2021/12/08 07:34:26;;;;;;;13.88;7.92;;;;;;;-1.12;83.29;100566.33;1704530;83;25720;-59
2021/12/08 07:37:00;;;;;;;12.23;7.65;;;;;;;-1.16;82.87;100572.65;1703204;82;27125;-58
2021/12/08 07:39:32;;;;;;;16.25;8.75;;;;;;;-1.23;82.87;100571.20;1707363;82;25893;-60
2021/12/08 07:42:07;;;;;;;17.30;9.50;;;;;;;-1.26;82.94;100562.12;1696144;82;25720;-59
2021/12/08 07:44:35;;;;;;;19.55;9.83;;;;;;;-1.26;83.14;100572.67;1671374;83;25826;-59
2021/12/08 07:47:09;;;;;;;18.30;8.70;;;;;;;-1.26;83.18;100561.64;1663805;84;25879;-59
2021/12/08 07:49:41;;;;;;;15.48;8.70;;;;;;;-1.18;83.51;100573.64;1639934;85;28479;-60
2021/12/08 07:52:14;;;;;;;17.50;10.10;;;;;;;-1.18;83.30;100563.97;1708407;83;25828;-60
2021/12/08 07:55:46;;;;;;;;;;;;;;;;;;;;;
2021/12/08 07:57:48;;;;;;;16.52;8.73;;;;;;;-1.14;83.42;100562.05;1651269;83;26136;-63
2021/12/08 08:00:25;;;;;;;17.98;8.73;;;;;;;-1.12;83.51;100563.69;1708321;83;26038;-59
2021/12/08 08:02:53;;;;;;;12.65;7.67;;;;;;;-1.13;83.36;100561.97;1690445;83;29556;-60
2021/12/08 08:05:28;;;;;;;16.52;9.03;;;;;;;-1.10;83.20;100576.81;1659893;83;27103;-61
2021/12/08 08:07:57;;;;;;;15.38;9.33;;;;;;;-1.12;83.11;100576.89;1683946;84;25870;-61
2021/12/08 08:10:27;;;;;;;12.82;7.80;;;;;;;-1.12;83.12;100570.77;1680843;83;26383;-60
2021/12/08 08:12:59;;;;;;;16.52;7.90;;;;;;;-1.13;83.13;100567.73;1681749;84;25896;-61
2021/12/08 08:15:25;;;;;;;17.02;10.35;;;;;;;-1.11;83.25;100551.33;1680738;84;27484;-61
2021/12/08 08:17:55;;;;;;;16.12;9.23;;;;;;;-1.06;83.21;100549.37;1674255;84;26599;-61
2021/12/08 08:20:33;;;;;;;15.78;8.65;;;;;;;-1.01;83.25;100553.97;1692031;83;25950;-60
2021/12/08 08:23:02;;;;;;;12.18;8.15;;;;;;;-1.01;82.78;100553.13;1685093;84;26619;-60
2021/12/08 08:25:37;;;;;;;15.63;9.05;;;;;;;-1.02;82.81;100554.05;1675582;83;25918;-60
2021/12/08 08:28:06;;;;;;;16.40;8.65;;;;;;;-1.03;82.75;100553.17;1681217;84;27475;-59
2021/12/08 08:30:41;;;;;;;15.68;7.92;;;;;;;-1.04;82.64;100555.45;1657204;86;25831;-59
2021/12/08 08:33:08;;;;;;;16.97;10.00;;;;;;;-1.05;82.75;100543.16;1672781;84;25485;-61
2021/12/08 08:35:40;;;;;;;13.15;8.63;;;;;;;-1.04;82.76;100545.33;1683258;83;25948;-61
2021/12/08 08:38:18;;;;;;;16.00;9.03;;;;;;;-1.01;82.96;100550.01;1699644;83;25823;-60
2021/12/08 08:40:57;;;;;;;13.98;9.25;;;;;;;-0.96;82.75;100533.52;1703161;82;27540;-59
2021/12/08 08:43:24;;;;;;;17.17;10.40;;;;;;;-0.94;82.61;100540.04;1657785;83;25477;-59
2021/12/08 08:46:00;;;;;;;18.05;11.15;;;;;;;-0.92;82.67;100546.13;1655538;84;25825;-59
2021/12/08 08:48:38;;;;;;;18.45;10.43;;;;;;;-0.87;82.64;100553.84;1661777;84;25815;-59
2021/12/08 08:51:13;;;;;;;21.48;11.50;;;;;;;-0.89;82.12;100559.17;1687205;84;25929;-59
2021/12/08 08:53:45;;;;;;;17.17;9.90;;;;;;;-0.93;81.99;100562.89;1679053;83;27527;-59
2021/12/08 08:56:23;;;;;;;20.77;9.73;;;;;;;-0.90;82.24;100555.28;1687070;84;25844;-60
2021/12/08 08:58:55;;;;;;;16.37;10.25;;;;;;;-0.85;82.31;100554.64;1703515;83;25818;-59
2021/12/08 09:01:27;;;;;;;14.15;8.75;;;;;;;-0.85;82.21;100561.23;1705908;83;25803;-60
2021/12/08 09:03:59;;;;;;;17.57;10.03;;;;;;;-0.90;81.84;100551.32;1679164;83;25961;-60
2021/12/08 09:06:31;;;;;;;15.20;9.18;;;;;;;-0.95;81.52;100531.28;1668506;84;28469;-60
2021/12/08 09:09:03;;;;;;;18.50;10.50;;;;;;;-0.98;81.78;100522.16;1693391;83;25736;-59
2021/12/08 09:11:37;;;;;;;16.45;9.13;;;;;;;-1.00;81.97;100531.08;1666127;84;25581;-60
2021/12/08 09:14:21;;;;;;;14.93;9.60;;;;;;;-0.97;81.81;100531.80;1682089;83;25856;-60
2021/12/08 09:16:53;;;;;;;17.92;10.43;;;;;;;-0.97;81.89;100547.64;1666414;85;33037;-62
2021/12/08 09:19:28;;;;;;;19.92;10.20;;;;;;;-1.07;82.18;100547.65;1690953;83;26865;-60
2021/12/08 09:22:06;;;;;;;14.78;9.00;;;;;;;-1.10;82.35;100535.89;1684166;84;25765;-60
2021/12/08 09:24:51;;;;;;;15.20;9.18;;;;;;;-1.04;82.50;100531.69;1676753;83;25800;-60
2021/12/08 09:27:23;;;;;;;18.37;10.55;;;;;;;-0.98;82.33;100521.28;1675350;83;25875;-60
2021/12/08 09:29:57;;;;;;;16.23;9.80;;;;;;;-1.02;82.24;100530.28;1695706;83;25860;-60
2021/12/08 09:32:35;;;;;;;17.17;10.10;;;;;;;-1.06;82.38;100534.84;1697476;83;27573;-61
2021/12/08 09:35:15;;;;;;;19.12;10.25;;;;;;;-1.07;82.65;100533.57;1640852;84;25848;-60
2021/12/08 09:37:51;;;;;;;13.80;8.83;;;;;;;-1.05;82.65;100524.69;1624856;86;25804;-60
2021/12/08 09:40:33;;;;;;;14.80;9.20;;;;;;;-1.00;82.76;100519.20;1677166;84;26032;-59
2021/12/08 09:43:11;;;;;;;14.75;9.08;;;;;;;-0.97;82.73;100509.35;1667470;83;25929;-59
2021/12/08 09:45:46;;;;;;;18.80;9.23;;;;;;;-0.98;82.60;100522.16;1641636;85;27463;-59
2021/12/08 09:48:14;;;;;;;15.35;9.40;;;;;;;-0.98;82.39;100523.92;1679683;83;25868;-59
2021/12/08 09:50:41;;;;;;;17.40;10.23;;;;;;;-0.99;82.16;100524.87;1675680;83;25832;-59
2021/12/08 09:53:10;;;;;;;21.97;10.55;;;;;;;-0.99;82.85;100513.84;1693290;83;26001;-59
2021/12/08 09:55:37;;;;;;;15.58;9.30;;;;;;;-1.03;82.66;100509.61;1684636;84;25799;-59
2021/12/08 09:58:06;;;;;;;15.65;9.65;;;;;;;-1.07;82.78;100521.25;1692389;84;27593;-59
2021/12/08 10:00:39;;;;;;;15.15;8.50;;;;;;;-1.06;82.87;100512.41;1686560;83;25783;-59
2021/12/08 10:03:07;;;;;;;18.17;10.40;;;;;;;-1.06;82.42;100517.69;1655838;84;25925;-59
2021/12/08 10:05:40;;;;;;;17.42;9.75;;;;;;;-1.02;82.63;100512.64;1700542;82;26459;-58
2021/12/08 10:08:08;;;;;;;16.32;9.13;;;;;;;-0.94;82.48;100505.71;1664804;84;26206;-59
2021/12/08 10:10:38;;;;;;;14.07;8.78;;;;;;;-0.90;82.36;100503.34;1678592;83;27545;-59
2021/12/08 10:13:05;;;;;;;16.35;8.65;;;;;;;-0.86;82.43;100506.22;1672472;84;25789;-60
2021/12/08 10:15:32;;;;;;;14.20;8.30;;;;;;;-0.80;82.22;100491.41;1663930;84;25847;-59
2021/12/08 10:18:00;;;;;;;12.58;7.62;;;;;;;-0.75;82.13;100489.03;1670160;83;26517;-59
2021/12/08 10:20:32;;;;;;;13.32;9.08;;;;;;;-0.77;81.59;100489.11;1687401;83;25482;-59
2021/12/08 10:23:20;;;;;;;15.13;9.13;;;;;;;-0.78;81.60;100496.64;1680486;83;27414;-59
2021/12/08 10:25:52;;;;;;;13.58;8.80;;;;;;;-0.83;81.44;100493.33;1702268;83;25483;-59
2021/12/08 10:28:39;;;;;;;14.45;8.83;;;;;;;-0.93;81.09;100498.63;1649929;84;25739;-60
2021/12/08 10:31:30;;;;;;;16.35;8.48;;;;;;;-0.92;81.38;100494.63;1634656;85;26532;-59
2021/12/08 10:34:10;;;;;;;13.43;8.63;;;;;;;-1.00;80.99;100494.95;1654693;84;25934;-60
2021/12/08 10:36:48;;;;;;;16.65;9.70;;;;;;;-1.03;81.45;100476.60;1632724;85;28346;-60
2021/12/08 10:39:26;;;;;;;14.45;8.33;;;;;;;-0.97;81.67;100482.95;1667356;83;25683;-60
2021/12/08 10:42:22;;;;;;;12.10;7.58;;;;;;;-0.93;81.88;100477.06;1650242;84;26371;-60
2021/12/08 10:45:10;;;;;;;15.65;9.00;;;;;;;-0.88;81.86;100472.41;1651939;85;25881;-60
2021/12/08 10:47:47;;;;;;;11.22;7.53;;;;;;;-0.87;81.58;100480.73;1668683;83;25970;-60
2021/12/08 10:56:08;;;;;;;18.15;9.55;;;;;;;-0.94;81.41;100477.98;1623791;85;25802;-59
2021/12/08 10:58:39;;;;;;;12.78;8.30;;;;;;;-0.99;81.15;100475.55;1667250;84;26426;-59
2021/12/08 11:01:16;;;;;;;13.50;8.05;;;;;;;-0.98;81.20;100471.11;1693025;84;25792;-59
2021/12/08 11:03:44;;;;;;;15.35;8.18;;;;;;;-0.97;81.32;100475.02;1657939;84;27493;-59
2021/12/08 11:06:15;;;;;;;15.72;9.03;;;;;;;-1.04;80.86;100471.40;1677078;84;25723;-60
2021/12/08 11:08:46;;;;;;;14.83;9.38;;;;;;;-1.09;80.84;100480.00;1696657;83;25839;-59
2021/12/08 11:11:22;;;;;;;16.27;9.30;;;;;;;-1.09;81.20;100490.09;1703897;83;26465;-59
2021/12/08 11:13:55;;;;;;;16.30;8.48;;;;;;;-1.12;81.22;100491.09;1705198;83;26067;-60
2021/12/08 11:16:27;;;;;;;16.48;8.70;;;;;;;-1.12;81.47;100486.28;1697413;83;28171;-60
2021/12/08 11:19:10;;;;;;;22.20;9.78;;;;;;;-1.12;81.67;100486.28;1668128;84;25907;-60
2021/12/08 11:21:42;;;;;;;16.10;8.87;;;;;;;-1.12;81.81;100479.20;1662518;85;26665;-60
2021/12/08 11:24:19;;;;;;;15.10;9.33;;;;;;;-1.08;81.89;100480.41;1673284;83;25792;-60
2021/12/08 11:26:47;;;;;;;;;;;;;;;-1.06;81.84;100474.13;1708674;82;25862;-60
2021/12/08 11:29:25;;;;;;;17.52;9.88;;;;;;;-1.11;81.57;100479.61;1696495;82;27336;-60
2021/12/08 11:31:59;;;;;;;16.05;9.23;;;;;;;-1.13;81.65;100481.92;1698239;83;25702;-60
2021/12/08 11:34:30;;;;;;;18.20;9.80;;;;;;;-1.08;81.88;100488.33;1710416;83;25526;-59
2021/12/08 11:37:07;;;;;;;17.32;8.85;;;;;;;-1.13;81.78;100481.92;1704427;83;25855;-59
2021/12/08 11:39:38;;;;;;;19.55;10.98;;;;;;;-1.15;81.90;100479.81;1718187;83;25915;-59
2021/12/08 11:42:13;;;;;;;21.52;11.70;;;;;;;-1.14;81.84;100473.61;1711521;83;28393;-59
2021/12/08 11:44:48;;;;;;;20.52;10.32;;;;;;;-1.17;81.81;100478.57;1692103;83;26612;-61
2021/12/08 11:47:23;;;;;;;16.67;10.13;;;;;;;-1.19;82.00;100479.09;1684064;83;25800;-60
2021/12/08 11:49:56;;;;;;;13.88;9.10;;;;;;;-1.16;81.90;100471.49;1656709;84;25887;-60
2021/12/08 11:52:29;;;;;;;13.58;8.20;;;;;;;-1.15;81.91;100469.25;1674337;84;25869;-60
2021/12/08 11:55:04;;;;;;;16.25;9.03;;;;;;;-1.14;81.90;100467.01;1668672;84;27485;-60
2021/12/08 11:57:36;;;;;;;12.98;8.18;;;;;;;-1.14;81.91;100466.53;1658582;85;25772;-59
2021/12/08 12:00:30;;;;;;;13.68;8.63;;;;;;;-1.12;81.81;100474.41;1658906;85;25994;-59
2021/12/08 12:03:10;;;;;;;18.60;11.18;;;;;;;-1.12;81.63;100463.37;1683678;82;25819;-61
2021/12/08 12:05:43;;;;;;;15.55;8.40;;;;;;;-1.12;81.56;100463.84;1669532;84;26095;-61
2021/12/08 12:08:14;;;;;;;19.50;10.23;;;;;;;-1.18;81.83;100453.54;1669121;84;27506;-60
2021/12/08 12:10:45;;;;;;;15.95;8.68;;;;;;;-1.17;81.85;100453.49;1671279;83;25995;-60
2021/12/08 12:13:13;;;;;;;18.75;10.30;;;;;;;-1.15;82.13;100466.13;1687801;83;25840;-59
2021/12/08 12:15:46;;;;;;;21.12;10.55;;;;;;;-1.16;81.70;100460.94;1672635;84;26560;-60
2021/12/08 12:18:20;;;;;;;20.53;11.57;;;;;;;-1.18;81.54;100462.78;1678587;84;25905;-59
2021/12/08 12:20:54;;;;;;;18.27;9.95;;;;;;;-1.18;81.54;100462.78;1675734;83;27520;-60